Glen Park, New York
Current Conditions -  °F | °C
As of 12:56 PM on Friday 24 Oct 2014 (Local Time) from KART Reporting Station
Clear Clear  
Wind Chill: 59°   Ceiling: Unl
Heat Index: 59°   Visibility: 10mi
Dew Point: 41°   Wind: 8mph
Humidity: 51%   Direction: 280°W
Pressure: 29.9"   Gusts: NA
Location:  43.9663°N, 75.9119°W
Report Text: KART 241656Z AUTO 28007KT 10SM CLR 15/05 A2990 RMK AO2 SLP124 T01500050
Loading
Personal Weather Stations






























Interactive Weather Map New forecast layout! Learn more

10-Day Weather Forecast

Advertisements
Track Severe Weather on mobile